createdAt,value
2023-03-02T00:02:01.401Z,22.50
2023-03-02T00:04:33.679Z,18.88
2023-03-02T00:07:06.517Z,21.67
2023-03-02T00:09:36.309Z,20.00
2023-03-02T00:12:06.127Z,21.50
2023-03-02T00:14:34.700Z,23.65
2023-03-02T00:17:05.533Z,22.58
2023-03-02T00:19:36.825Z,22.80
2023-03-02T00:22:05.104Z,20.80
2023-03-02T00:24:33.305Z,20.20
2023-03-02T00:27:01.619Z,20.60
2023-03-02T00:29:29.764Z,19.83
2023-03-02T00:31:58.119Z,19.83
2023-03-02T00:34:28.190Z,20.90
2023-03-02T00:36:56.614Z,19.55
2023-03-02T00:39:24.751Z,22.70
2023-03-02T00:41:53.141Z,19.42
2023-03-02T00:44:21.173Z,19.40
2023-03-02T00:46:49.848Z,20.67
2023-03-02T00:49:17.935Z,20.90
2023-03-02T00:51:48.552Z,20.77
2023-03-02T00:54:16.636Z,19.10
2023-03-02T00:56:45.309Z,20.45
2023-03-02T00:59:26.490Z,21.45
2023-03-02T01:02:03.199Z,21.92
2023-03-02T01:04:36.094Z,21.23
2023-03-02T01:07:08.807Z,23.02
2023-03-02T01:09:37.431Z,18.55
2023-03-02T01:12:09.415Z,22.15
2023-03-02T01:14:37.846Z,19.48
2023-03-02T01:17:06.387Z,20.80
2023-03-02T01:19:35.143Z,20.23
2023-03-02T01:22:03.736Z,22.63
2023-03-02T01:24:33.945Z,18.33
2023-03-02T01:27:02.108Z,22.42
2023-03-02T01:29:30.300Z,23.25
2023-03-02T01:31:58.647Z,22.45
2023-03-02T01:34:27.153Z,22.83
2023-03-02T01:36:55.195Z,19.75
2023-03-02T01:39:23.725Z,20.83
2023-03-02T01:41:54.988Z,20.88
2023-03-02T01:44:45.704Z,20.45
2023-03-02T01:47:18.452Z,20.02
2023-03-02T01:49:58.210Z,21.65
2023-03-02T01:52:30.358Z,19.77
2023-03-02T01:55:03.195Z,20.63
2023-03-02T01:57:43.880Z,23.60
2023-03-02T02:00:17.492Z,22.30
2023-03-02T02:02:46.125Z,22.10
2023-03-02T02:05:18.896Z,21.65
2023-03-02T02:07:47.566Z,22.48
2023-03-02T02:10:16.834Z,21.00
2023-03-02T02:12:46.533Z,21.70
2023-03-02T02:15:14.605Z,23.50
2023-03-02T02:17:43.385Z,21.83
2023-03-02T02:20:25.610Z,21.10
2023-03-02T02:23:03.663Z,21.13
2023-03-02T02:25:46.248Z,23.13
2023-03-02T02:28:21.066Z,24.83
2023-03-02T02:30:53.348Z,22.30
2023-03-02T02:33:25.655Z,21.27
2023-03-02T02:35:58.535Z,22.35
2023-03-02T02:38:28.237Z,22.77
2023-03-02T02:40:59.936Z,25.27
2023-03-02T02:43:34.071Z,24.92
2023-03-02T02:46:03.477Z,24.05
2023-03-02T02:48:33.154Z,23.92
2023-03-02T02:51:03.128Z,26.00
2023-03-02T02:53:40.229Z,24.55
2023-03-02T02:56:11.454Z,25.00
2023-03-02T02:58:45.451Z,26.15
2023-03-02T03:01:19.133Z,25.98
2023-03-02T03:03:53.056Z,24.70
2023-03-02T03:06:26.732Z,26.40
2023-03-02T03:08:59.274Z,24.92
2023-03-02T03:11:36.254Z,25.77
2023-03-02T03:14:12.534Z,20.98
2023-03-02T03:16:43.533Z,26.50
2023-03-02T03:19:18.330Z,23.50
2023-03-02T03:21:50.156Z,23.30
2023-03-02T03:24:19.138Z,22.77
2023-03-02T03:26:48.823Z,24.80
2023-03-02T03:29:20.101Z,25.00
2023-03-02T03:31:49.414Z,28.98
2023-03-02T03:34:18.371Z,25.13
2023-03-02T03:36:47.888Z,23.05
2023-03-02T03:39:18.096Z,25.70
2023-03-02T03:41:46.600Z,26.85
2023-03-02T03:44:15.073Z,25.48
2023-03-02T03:46:46.447Z,22.63
2023-03-02T03:49:15.466Z,24.75
2023-03-02T03:51:43.789Z,22.77
2023-03-02T03:54:12.633Z,24.60
2023-03-02T03:56:45.046Z,26.13
2023-03-02T03:59:16.771Z,26.40
2023-03-02T04:02:01.345Z,27.05
2023-03-02T04:04:42.025Z,24.90
2023-03-02T04:07:16.833Z,25.58
2023-03-02T04:09:45.965Z,25.88
2023-03-02T04:12:15.710Z,24.38
2023-03-02T04:14:48.531Z,22.88
2023-03-02T04:17:18.881Z,26.08
2023-03-02T04:19:49.904Z,25.38
2023-03-02T04:22:20.182Z,27.40
2023-03-02T04:24:49.537Z,25.10
2023-03-02T04:27:18.658Z,25.05
2023-03-02T04:29:47.402Z,26.85
2023-03-02T04:32:15.813Z,24.10
2023-03-02T04:34:49.146Z,27.05
2023-03-02T04:37:17.755Z,24.15
2023-03-02T04:39:50.210Z,28.25
2023-03-02T04:42:18.729Z,24.67
2023-03-02T04:44:46.970Z,22.75
2023-03-02T04:47:15.392Z,25.70
2023-03-02T04:49:43.438Z,25.95
2023-03-02T04:52:13.492Z,25.75
2023-03-02T04:54:41.643Z,23.98
2023-03-02T04:57:09.999Z,22.80
2023-03-02T04:59:38.503Z,25.17
2023-03-02T05:02:06.913Z,24.05
2023-03-02T05:04:35.445Z,21.25
2023-03-02T05:07:03.740Z,23.17
2023-03-02T05:09:33.595Z,27.75
2023-03-02T05:12:02.353Z,28.65
2023-03-02T05:14:31.003Z,26.02
2023-03-02T05:16:59.768Z,24.10
2023-03-02T05:19:28.271Z,26.75
2023-03-02T05:21:57.263Z,26.85
2023-03-02T05:24:25.377Z,24.83
2023-03-02T05:26:54.933Z,24.52
2023-03-02T05:29:23.570Z,25.55
2023-03-02T05:31:52.329Z,24.73
2023-03-02T05:34:21.115Z,26.85
2023-03-02T05:36:49.330Z,27.17
2023-03-02T05:39:17.450Z,24.77
2023-03-02T05:41:45.747Z,25.05
2023-03-02T05:44:15.156Z,22.92
2023-03-02T05:46:43.464Z,23.13
2023-03-02T05:49:11.691Z,29.65
2023-03-02T05:51:39.712Z,29.13
2023-03-02T05:54:07.932Z,25.15
2023-03-02T05:56:36.076Z,34.00
2023-03-02T05:59:04.226Z,33.28
2023-03-02T06:01:35.596Z,29.60
2023-03-02T06:04:04.308Z,25.27
2023-03-02T06:06:34.117Z,22.90
2023-03-02T06:09:02.975Z,24.95
2023-03-02T06:11:31.619Z,24.05
2023-03-02T06:13:59.640Z,25.70
2023-03-02T06:16:27.653Z,28.85
2023-03-02T06:18:57.328Z,25.40
2023-03-02T06:21:25.539Z,26.50
2023-03-02T06:23:53.880Z,25.60
2023-03-02T06:26:22.197Z,29.35
2023-03-02T06:28:53.160Z,28.88
2023-03-02T06:31:22.173Z,28.85
2023-03-02T06:33:50.564Z,26.75
2023-03-02T06:36:20.386Z,27.17
2023-03-02T06:38:48.725Z,27.83
2023-03-02T06:41:17.145Z,30.48
2023-03-02T06:43:45.550Z,29.30
2023-03-02T06:46:13.982Z,29.30
2023-03-02T06:48:42.162Z,32.92
2023-03-02T06:51:10.193Z,32.25
2023-03-02T06:53:40.117Z,25.52
2023-03-02T06:56:09.176Z,31.50
2023-03-02T06:58:38.478Z,29.85
2023-03-02T07:01:08.091Z,27.52
2023-03-02T07:03:37.043Z,32.15
2023-03-02T07:06:05.651Z,39.78
2023-03-02T07:08:34.563Z,36.25
2023-03-02T07:11:07.744Z,34.00
2023-03-02T07:13:38.073Z,34.95
2023-03-02T07:16:10.232Z,37.38
2023-03-02T07:18:38.436Z,35.80
2023-03-02T07:21:07.866Z,38.30
2023-03-02T07:23:36.006Z,38.28
2023-03-02T07:26:08.642Z,41.25
2023-03-02T07:28:40.340Z,45.50
2023-03-02T07:31:09.274Z,50.88
2023-03-02T07:33:37.943Z,55.55
2023-03-02T07:36:07.549Z,57.33
2023-03-02T07:38:35.633Z,50.35
2023-03-02T07:41:07.769Z,45.92
2023-03-02T07:43:36.800Z,48.55
2023-03-02T07:46:07.560Z,49.33
2023-03-02T07:48:36.728Z,48.45
2023-03-02T07:51:06.610Z,49.50
2023-03-02T07:53:34.682Z,51.92
2023-03-02T07:56:09.120Z,51.38
2023-03-02T07:58:37.798Z,46.63
2023-03-02T08:01:07.700Z,47.33
2023-03-02T08:03:35.741Z,39.42
2023-03-02T08:06:07.097Z,41.25
2023-03-02T08:08:35.951Z,40.25
2023-03-02T08:11:08.563Z,37.83
2023-03-02T08:13:37.324Z,36.33
2023-03-02T08:16:09.727Z,37.03
2023-03-02T08:18:39.107Z,38.75
2023-03-02T08:21:13.086Z,40.28
2023-03-02T08:23:41.525Z,38.00
2023-03-02T08:26:13.173Z,38.40
2023-03-02T08:28:42.904Z,36.30
2023-03-02T08:31:13.002Z,36.92
2023-03-02T08:33:41.552Z,41.20
2023-03-02T08:36:13.808Z,39.50
2023-03-02T08:38:41.893Z,38.80
2023-03-02T08:41:13.157Z,35.83
2023-03-02T08:43:41.313Z,40.10
2023-03-02T08:46:09.861Z,35.95
2023-03-02T08:48:39.703Z,37.03
2023-03-02T08:51:09.400Z,34.45
2023-03-02T08:53:40.710Z,37.90
2023-03-02T08:56:16.988Z,36.05
2023-03-02T08:58:45.272Z,37.58
2023-03-02T09:01:18.504Z,38.78
2023-03-02T09:03:48.852Z,39.85
2023-03-02T09:06:17.379Z,33.95
2023-03-02T09:08:46.296Z,34.15
2023-03-02T09:11:14.731Z,29.77
2023-03-02T09:13:43.339Z,30.50
2023-03-02T09:16:12.396Z,24.05
2023-03-02T09:18:40.932Z,28.30
2023-03-02T09:21:11.888Z,25.38
2023-03-02T09:23:40.145Z,25.20
2023-03-02T09:26:08.587Z,23.80
2023-03-02T09:28:38.358Z,20.95
2023-03-02T09:31:08.459Z,22.42
2023-03-02T09:33:37.464Z,27.42
2023-03-02T09:36:12.947Z,24.90
2023-03-02T09:38:41.066Z,22.67
2023-03-02T09:41:36.128Z,21.70
2023-03-02T09:44:17.919Z,22.73
2023-03-02T09:46:51.253Z,20.05
2023-03-02T09:49:32.775Z,20.33
2023-03-02T09:52:11.956Z,19.52
2023-03-02T09:54:41.986Z,19.25
2023-03-02T09:57:22.108Z,19.50
2023-03-02T09:59:55.377Z,18.55
2023-03-02T10:02:29.514Z,18.95
2023-03-02T10:05:00.827Z,21.42
2023-03-02T10:07:32.457Z,19.60
2023-03-02T10:10:05.685Z,22.75
2023-03-02T10:12:52.812Z,22.60
2023-03-02T10:15:27.545Z,22.17
2023-03-02T10:18:02.277Z,23.98
2023-03-02T10:20:35.992Z,24.25
2023-03-02T10:23:27.705Z,23.45
2023-03-02T10:26:02.303Z,24.63
2023-03-02T10:28:36.932Z,27.10
2023-03-02T10:31:10.932Z,26.92
2023-03-02T10:33:42.172Z,26.85
2023-03-02T10:36:22.932Z,26.95
2023-03-02T10:38:53.045Z,29.55
2023-03-02T10:41:26.424Z,28.45
2023-03-02T10:44:00.736Z,27.10
2023-03-02T10:46:41.290Z,28.20
2023-03-02T10:49:25.576Z,27.45
2023-03-02T10:51:59.184Z,27.15
2023-03-02T10:54:30.173Z,26.50
2023-03-02T10:57:01.221Z,27.40
2023-03-02T10:59:43.445Z,24.95
2023-03-02T11:02:18.574Z,27.55
2023-03-02T11:04:47.389Z,26.92
2023-03-02T11:07:18.997Z,26.52
2023-03-02T11:09:59.883Z,26.35
2023-03-02T11:12:27.953Z,25.25
2023-03-02T11:15:19.817Z,25.02
2023-03-02T11:17:51.890Z,27.23
2023-03-02T11:20:25.335Z,25.50
2023-03-02T11:23:03.946Z,24.67
2023-03-02T11:26:01.146Z,26.77
2023-03-02T11:28:47.108Z,22.77
2023-03-02T11:31:24.923Z,23.40
2023-03-02T11:34:15.649Z,24.85
2023-03-02T11:36:53.848Z,25.52
2023-03-02T11:39:30.640Z,26.48
2023-03-02T11:42:00.360Z,26.60
2023-03-02T11:44:29.918Z,25.60
2023-03-02T11:47:02.982Z,25.13
2023-03-02T11:49:40.818Z,20.52
2023-03-02T11:52:19.421Z,22.13
2023-03-02T11:54:53.831Z,20.67
2023-03-02T11:57:29.232Z,23.38
2023-03-02T11:59:58.933Z,19.80
2023-03-02T12:02:28.562Z,22.08
2023-03-02T12:05:04.921Z,20.60
2023-03-02T12:07:33.557Z,20.05
2023-03-02T12:10:05.259Z,28.00
2023-03-02T12:12:42.780Z,25.92
2023-03-02T12:15:45.471Z,21.95
2023-03-02T12:18:28.790Z,33.35
2023-03-02T12:21:03.179Z,23.02
2023-03-02T12:24:00.789Z,20.67
2023-03-02T12:26:34.065Z,19.83
2023-03-02T12:29:08.308Z,22.20
2023-03-02T12:31:44.632Z,26.17
2023-03-02T12:34:35.568Z,23.05
2023-03-02T12:37:09.387Z,19.90
2023-03-02T12:40:12.512Z,22.25
2023-03-02T12:42:51.158Z,20.25
2023-03-02T12:45:36.118Z,19.30
2023-03-02T12:48:11.585Z,19.92
2023-03-02T12:50:41.050Z,18.40
2023-03-02T12:53:19.582Z,19.27
2023-03-02T12:55:48.033Z,17.77
2023-03-02T12:58:19.546Z,19.40
2023-03-02T13:00:54.760Z,20.60
2023-03-02T13:03:23.269Z,19.70
2023-03-02T13:05:51.572Z,18.92
2023-03-02T13:08:24.332Z,19.20
2023-03-02T13:10:54.700Z,19.25
2023-03-02T13:13:25.229Z,23.50
2023-03-02T13:15:58.438Z,20.92
2023-03-02T13:18:32.107Z,18.52
2023-03-02T13:21:01.696Z,20.40
2023-03-02T13:23:32.075Z,21.60
2023-03-02T13:26:02.098Z,19.70
2023-03-02T13:28:31.962Z,19.45
2023-03-02T13:31:04.887Z,21.55
2023-03-02T13:33:36.145Z,21.17
2023-03-02T13:36:04.552Z,19.83
2023-03-02T13:38:36.718Z,21.10
2023-03-02T13:41:05.617Z,19.40
2023-03-02T13:43:39.195Z,22.25
2023-03-02T13:46:28.710Z,21.25
2023-03-02T13:49:13.715Z,21.77
2023-03-02T13:51:45.458Z,22.80
2023-03-02T13:54:22.312Z,19.88
2023-03-02T13:56:53.716Z,19.63
2023-03-02T13:59:23.458Z,16.98
2023-03-02T14:01:53.280Z,19.20
2023-03-02T14:04:23.982Z,18.40
2023-03-02T14:06:53.022Z,22.13
2023-03-02T14:09:21.932Z,18.73
2023-03-02T14:11:53.575Z,19.40
2023-03-02T14:14:24.630Z,19.60
2023-03-02T14:16:54.663Z,19.95
2023-03-02T14:19:22.866Z,17.90
2023-03-02T14:21:51.045Z,20.67
2023-03-02T14:24:19.351Z,19.60
2023-03-02T14:26:49.813Z,18.20
2023-03-02T14:29:26.764Z,16.95
2023-03-02T14:31:56.946Z,20.13
2023-03-02T14:34:25.262Z,17.05
2023-03-02T14:36:55.634Z,16.80
2023-03-02T14:39:29.800Z,17.77
2023-03-02T14:41:58.524Z,16.75
2023-03-02T14:44:27.001Z,17.30
2023-03-02T14:46:57.607Z,15.30
2023-03-02T14:49:26.368Z,14.50
2023-03-02T14:52:01.762Z,15.07
2023-03-02T14:54:37.527Z,14.40
2023-03-02T14:57:06.410Z,15.45
2023-03-02T14:59:34.559Z,16.20
2023-03-02T15:02:19.018Z,14.23
2023-03-02T15:04:56.043Z,14.20
2023-03-02T15:07:26.366Z,14.77
2023-03-02T15:09:55.660Z,17.00
2023-03-02T15:12:24.072Z,16.00
2023-03-02T15:14:52.261Z,15.18
2023-03-02T15:17:22.073Z,17.38
2023-03-02T15:19:50.267Z,15.68
2023-03-02T15:22:18.611Z,14.93
2023-03-02T15:24:46.908Z,16.15
2023-03-02T15:27:15.846Z,18.17
2023-03-02T15:29:45.955Z,17.30
2023-03-02T15:32:14.339Z,16.17
2023-03-02T15:34:45.344Z,15.85
2023-03-02T15:37:13.807Z,17.30
2023-03-02T15:39:42.251Z,16.05
2023-03-02T15:42:12.636Z,18.05
2023-03-02T15:44:42.267Z,18.73
2023-03-02T15:47:12.827Z,18.42
2023-03-02T15:49:41.080Z,17.50
2023-03-02T15:52:12.450Z,17.75
2023-03-02T15:54:40.877Z,17.45
2023-03-02T15:57:10.240Z,18.25
2023-03-02T15:59:38.686Z,16.77
2023-03-02T16:02:09.321Z,27.65
2023-03-02T16:04:37.995Z,17.25
2023-03-02T16:07:06.439Z,17.27
2023-03-02T16:09:35.874Z,15.52
2023-03-02T16:12:04.242Z,16.42
2023-03-02T16:14:32.339Z,15.63
2023-03-02T16:17:00.722Z,18.30
2023-03-02T16:19:30.450Z,15.48
2023-03-02T16:21:58.752Z,17.40
2023-03-02T16:24:26.954Z,17.70
2023-03-02T16:26:56.771Z,23.35
2023-03-02T16:29:25.271Z,28.27
2023-03-02T16:31:53.807Z,24.20
2023-03-02T16:34:22.426Z,19.65
2023-03-02T16:36:50.816Z,18.92
2023-03-02T16:39:19.267Z,18.17
2023-03-02T16:41:47.906Z,18.23
2023-03-02T16:44:18.226Z,17.02
2023-03-02T16:46:47.133Z,13.85
2023-03-02T16:49:15.425Z,12.68
2023-03-02T16:51:44.225Z,15.15
2023-03-02T16:54:16.983Z,12.43
2023-03-02T16:56:47.477Z,14.05
2023-03-02T16:59:17.765Z,16.50
2023-03-02T17:01:46.084Z,14.82
2023-03-02T17:04:14.273Z,16.25
2023-03-02T17:06:59.562Z,13.60
2023-03-02T17:09:29.092Z,12.68
2023-03-02T17:11:57.286Z,13.60
2023-03-02T17:14:27.188Z,20.40
2023-03-02T17:16:56.480Z,16.63
2023-03-02T17:19:26.831Z,13.93
2023-03-02T17:21:57.555Z,14.63
2023-03-02T17:24:25.806Z,16.30
2023-03-02T17:26:54.181Z,15.18
2023-03-02T17:29:23.068Z,13.00
2023-03-02T17:31:52.498Z,12.57
2023-03-02T17:34:20.899Z,12.35
2023-03-02T17:36:49.187Z,12.70
2023-03-02T17:39:17.125Z,14.05
2023-03-02T17:41:45.585Z,13.57
2023-03-02T17:44:14.080Z,21.95
2023-03-02T17:46:44.050Z,13.80
2023-03-02T17:49:14.177Z,13.90
2023-03-02T17:51:42.234Z,12.90
2023-03-02T17:54:10.369Z,12.07
2023-03-02T17:56:38.624Z,13.43
2023-03-02T17:59:07.475Z,11.50
2023-03-02T18:01:36.189Z,15.60
2023-03-02T18:04:05.014Z,16.35
2023-03-02T18:06:34.941Z,15.20
2023-03-02T18:09:03.209Z,12.27
2023-03-02T18:11:31.515Z,14.38
2023-03-02T18:13:59.832Z,13.95
2023-03-02T18:16:29.473Z,13.80
2023-03-02T18:18:58.521Z,15.80
2023-03-02T18:21:27.002Z,13.90
2023-03-02T18:23:56.674Z,14.70
2023-03-02T18:26:25.278Z,13.25
2023-03-02T18:28:53.510Z,16.27
2023-03-02T18:31:22.175Z,27.08
2023-03-02T18:33:50.863Z,42.50
2023-03-02T18:36:19.665Z,30.88
2023-03-02T18:38:47.751Z,16.02
2023-03-02T18:41:17.220Z,16.75
2023-03-02T18:43:45.459Z,16.30
2023-03-02T18:46:23.417Z,15.98
2023-03-02T18:48:52.989Z,12.57
2023-03-02T18:51:22.889Z,13.70
2023-03-02T18:53:52.151Z,12.88
2023-03-02T18:56:22.066Z,15.45
2023-03-02T18:58:51.993Z,14.80
2023-03-02T19:01:20.756Z,17.70
2023-03-02T19:03:49.368Z,18.80
2023-03-02T19:06:18.008Z,16.90
2023-03-02T19:08:48.068Z,17.00
2023-03-02T19:11:16.207Z,21.67
2023-03-02T19:13:45.992Z,22.55
2023-03-02T19:16:14.211Z,14.55
2023-03-02T19:18:42.502Z,15.02
2023-03-02T19:21:10.763Z,13.15
2023-03-02T19:23:38.932Z,16.95
2023-03-02T19:26:08.530Z,20.98
2023-03-02T19:28:38.514Z,23.63
2023-03-02T19:31:11.562Z,18.10
2023-03-02T19:33:40.070Z,13.75
2023-03-02T19:36:09.551Z,12.73
2023-03-02T19:38:41.602Z,14.23
2023-03-02T19:41:12.330Z,12.98
2023-03-02T19:43:42.022Z,16.42
2023-03-02T19:46:11.761Z,14.65
2023-03-02T19:48:40.461Z,17.33
2023-03-02T19:51:09.459Z,16.25
2023-03-02T19:53:40.299Z,15.00
2023-03-02T19:56:12.813Z,17.10
2023-03-02T19:58:47.395Z,18.40
2023-03-02T20:01:21.647Z,18.75
2023-03-02T20:03:49.995Z,18.50
2023-03-02T20:06:18.007Z,18.55
2023-03-02T20:08:48.099Z,18.10
2023-03-02T20:11:16.834Z,18.67
2023-03-02T20:13:45.488Z,17.58
2023-03-02T20:16:23.029Z,17.90
2023-03-02T20:18:51.522Z,17.63
2023-03-02T20:21:21.383Z,19.95
2023-03-02T20:23:50.011Z,19.30
2023-03-02T20:26:18.235Z,20.58
2023-03-02T20:28:49.577Z,19.80
2023-03-02T20:31:19.665Z,21.70
2023-03-02T20:33:50.963Z,20.52
2023-03-02T20:36:23.711Z,22.17
2023-03-02T20:38:57.912Z,23.33
2023-03-02T20:41:26.135Z,24.63
2023-03-02T20:43:54.530Z,27.40
2023-03-02T20:46:27.766Z,29.33
2023-03-02T20:48:56.373Z,24.75
2023-03-02T20:51:25.880Z,27.02
2023-03-02T20:53:57.219Z,26.13
2023-03-02T20:56:25.925Z,26.30
2023-03-02T20:58:54.189Z,26.25
2023-03-02T21:01:25.439Z,26.83
2023-03-02T21:03:54.130Z,31.30
2023-03-02T21:06:22.689Z,27.05
2023-03-02T21:08:52.526Z,29.65
2023-03-02T21:11:23.425Z,28.45
2023-03-02T21:13:51.551Z,28.08
2023-03-02T21:16:23.065Z,31.27
2023-03-02T21:18:54.845Z,26.55
2023-03-02T21:21:35.660Z,28.33
2023-03-02T21:24:09.131Z,27.88
2023-03-02T21:26:37.589Z,27.30
2023-03-02T21:29:06.585Z,29.73
2023-03-02T21:31:34.688Z,29.67
2023-03-02T21:34:04.132Z,31.15
2023-03-02T21:36:33.132Z,30.45
2023-03-02T21:39:01.403Z,33.88
2023-03-02T21:41:29.900Z,31.67
2023-03-02T21:43:58.203Z,29.90
2023-03-02T21:46:26.267Z,31.02
2023-03-02T21:48:55.074Z,32.17
2023-03-02T21:51:24.572Z,32.72
2023-03-02T21:53:53.616Z,30.33
2023-03-02T21:56:24.079Z,28.73
2023-03-02T21:58:54.856Z,28.90
2023-03-02T22:01:23.806Z,32.22
2023-03-02T22:03:52.218Z,28.98
2023-03-02T22:06:22.727Z,28.15
2023-03-02T22:08:52.638Z,28.95
2023-03-02T22:11:22.786Z,27.20
2023-03-02T22:13:53.145Z,29.45
2023-03-02T22:16:22.900Z,27.83
2023-03-02T22:18:55.563Z,28.48
2023-03-02T22:21:31.387Z,29.92
2023-03-02T22:24:18.878Z,27.77
2023-03-02T22:26:49.145Z,29.40
2023-03-02T22:29:19.296Z,27.55
2023-03-02T22:31:49.653Z,27.50
2023-03-02T22:34:23.495Z,29.30
2023-03-02T22:36:52.471Z,28.42
2023-03-02T22:39:29.256Z,27.60
2023-03-02T22:42:06.345Z,29.50
2023-03-02T22:44:34.768Z,29.88
2023-03-02T22:47:03.653Z,29.08
2023-03-02T22:49:32.234Z,31.38
2023-03-02T22:52:02.386Z,30.98
2023-03-02T22:54:38.492Z,31.55
2023-03-02T22:57:21.255Z,28.73
2023-03-02T22:59:50.016Z,32.05
2023-03-02T23:02:22.378Z,32.85
2023-03-02T23:04:50.954Z,32.22
2023-03-02T23:07:20.854Z,32.15
2023-03-02T23:09:50.611Z,30.33
2023-03-02T23:12:23.345Z,33.13
2023-03-02T23:14:53.609Z,30.60
2023-03-02T23:17:24.629Z,35.65
2023-03-02T23:19:52.893Z,33.97
2023-03-02T23:22:21.362Z,33.15
2023-03-02T23:24:50.836Z,33.75
2023-03-02T23:27:19.708Z,37.03
2023-03-02T23:29:48.284Z,34.97
2023-03-02T23:32:18.368Z,34.30
2023-03-02T23:34:47.802Z,35.60
2023-03-02T23:37:16.120Z,32.47
2023-03-02T23:39:46.139Z,37.05
2023-03-02T23:42:16.206Z,33.00
2023-03-02T23:44:44.709Z,34.00
2023-03-02T23:47:13.065Z,35.58
2023-03-02T23:49:41.072Z,39.35
2023-03-02T23:52:09.038Z,33.42
2023-03-02T23:54:37.524Z,36.25
2023-03-02T23:57:05.500Z,35.60
2023-03-02T23:59:35.092Z,38.45
